Time;durP1;ratioP1;P1;durP2;ratioP2;P2;SDS_P1;SDS_P2;PMS_P1;PMS_P2;Temp;Humidity;BMP_temperature;BMP_pressure;BME280_temperature;BME280_humidity;BME280_pressure;Samples;Min_cycle;Max_cycle;Signal;HPM_P1;HPM_P2
2023/02/15 00:00:24;;;;;;;8.50;5.22;;;4.10;93.80;;;;;;1906945;75;21195;-64
2023/02/15 00:02:53;;;;;;;9.70;5.67;;;4.10;93.80;;;;;;1906829;75;21044;-64
2023/02/15 00:05:22;;;;;;;10.93;6.17;;;4.10;93.90;;;;;;1906727;75;21053;-64
2023/02/15 00:07:51;;;;;;;11.50;6.62;;;4.10;93.80;;;;;;1906811;75;21256;-64
2023/02/15 00:10:20;;;;;;;9.13;5.42;;;4.10;93.80;;;;;;1906807;75;21093;-64
2023/02/15 00:12:50;;;;;;;12.33;6.62;;;4.10;93.60;;;;;;1906832;75;21115;-65
2023/02/15 00:15:19;;;;;;;10.68;4.90;;;4.10;93.60;;;;;;1906846;75;21033;-64
2023/02/15 00:17:48;;;;;;;9.83;6.28;;;4.00;93.20;;;;;;1906824;75;21215;-64
2023/02/15 00:20:18;;;;;;;11.25;6.67;;;3.80;93.20;;;;;;1906912;75;21190;-64
2023/02/15 00:22:47;;;;;;;8.40;5.37;;;3.70;93.20;;;;;;1906804;75;21199;-65
2023/02/15 00:25:16;;;;;;;6.10;3.58;;;3.60;93.30;;;;;;1906901;75;21145;-64
2023/02/15 00:27:45;;;;;;;10.58;5.40;;;3.50;93.40;;;;;;1906971;75;21105;-65
2023/02/15 00:30:14;;;;;;;7.47;5.10;;;3.40;93.50;;;;;;1906776;75;21143;-64
2023/02/15 00:32:43;;;;;;;7.35;4.20;;;3.30;93.70;;;;;;1906823;75;21179;-65
2023/02/15 00:35:13;;;;;;;11.15;6.35;;;3.20;93.80;;;;;;1906908;75;21211;-64
2023/02/15 00:37:42;;;;;;;7.78;5.65;;;3.20;93.90;;;;;;1907034;75;21105;-65
2023/02/15 00:40:11;;;;;;;10.68;4.80;;;3.20;93.90;;;;;;1906785;75;21303;-67
2023/02/15 00:42:40;;;;;;;10.40;6.15;;;3.10;93.90;;;;;;1906762;75;21146;-64
2023/02/15 00:45:10;;;;;;;12.35;5.12;;;3.10;94.00;;;;;;1906726;75;21369;-64
2023/02/15 00:47:39;;;;;;;5.00;4.42;;;3.10;94.00;;;;;;1906716;75;21081;-64
2023/02/15 00:50:10;;;;;;;8.00;5.20;;;3.10;94.10;;;;;;1906656;75;21178;-65
2023/02/15 00:52:39;;;;;;;11.25;5.45;;;3.10;94.10;;;;;;1898933;75;21125;-64
2023/02/15 00:55:08;;;;;;;9.88;5.60;;;3.10;94.00;;;;;;1906672;75;21144;-64
2023/02/15 00:57:37;;;;;;;12.33;5.97;;;3.00;94.10;;;;;;1906718;75;21173;-64
2023/02/15 01:00:07;;;;;;;10.82;6.75;;;3.10;94.20;;;;;;1906749;75;21029;-65
2023/02/15 01:02:36;;;;;;;8.28;5.67;;;3.10;94.20;;;;;;1906799;75;21117;-64
2023/02/15 01:05:06;;;;;;;7.72;5.08;;;3.10;94.10;;;;;;1902340;75;21439;-64
2023/02/15 01:07:35;;;;;;;10.35;6.65;;;3.00;94.10;;;;;;1897345;76;21159;-64
2023/02/15 01:10:05;;;;;;;16.62;7.92;;;3.00;94.10;;;;;;1897346;76;21170;-64
2023/02/15 01:12:37;;;;;;;7.10;5.30;;;3.10;94.20;;;;;;1897543;76;21142;-65
2023/02/15 01:15:06;;;;;;;7.03;4.75;;;3.00;94.20;;;;;;1897350;76;21090;-64
2023/02/15 01:17:35;;;;;;;9.58;4.65;;;3.00;94.30;;;;;;1897418;76;21025;-64
2023/02/15 01:20:06;;;;;;;4.62;3.17;;;3.00;94.30;;;;;;1897373;75;21142;-64
2023/02/15 01:22:35;;;;;;;8.53;4.55;;;2.90;94.30;;;;;;1897360;76;21198;-64
2023/02/15 01:25:05;;;;;;;6.05;3.77;;;2.90;94.20;;;;;;1897360;76;21348;-64
2023/02/15 01:27:33;;;;;;;3.95;2.22;;;2.90;94.20;;;;;;1897521;76;21107;-64
2023/02/15 01:30:04;;;;;;;4.03;2.85;;;2.80;94.30;;;;;;1897308;75;21146;-64
2023/02/15 01:32:33;;;;;;;3.40;2.50;;;2.80;94.20;;;;;;1897569;76;21236;-64
2023/02/15 01:35:03;;;;;;;5.05;2.83;;;2.70;94.30;;;;;;1897329;76;21175;-64
2023/02/15 01:37:33;;;;;;;6.53;3.00;;;2.70;94.30;;;;;;1897530;76;21264;-64
2023/02/15 01:40:04;;;;;;;4.83;3.20;;;2.60;94.30;;;;;;1897542;76;21243;-65
2023/02/15 01:42:33;;;;;;;4.50;3.30;;;2.70;94.40;;;;;;1897597;76;21141;-64
2023/02/15 01:45:06;;;;;;;3.80;2.75;;;2.60;94.40;;;;;;1897570;76;21232;-64
2023/02/15 01:47:43;;;;;;;3.25;2.42;;;2.70;94.40;;;;;;1897562;75;21404;-64
2023/02/15 01:50:21;;;;;;;3.52;2.50;;;2.80;94.50;;;;;;1897552;76;21089;-64
2023/02/15 01:52:52;;;;;;;2.05;1.77;;;2.90;94.40;;;;;;1895970;76;21236;-65
2023/02/15 01:55:23;;;;;;;2.60;2.40;;;2.90;94.30;;;;;;1897535;75;21286;-64
2023/02/15 01:57:53;;;;;;;4.00;1.87;;;2.90;94.10;;;;;;1897680;76;21139;-64
2023/02/15 02:00:23;;;;;;;1.67;1.57;;;2.80;94.20;;;;;;1897412;76;21287;-65
2023/02/15 02:02:54;;;;;;;3.08;2.30;;;2.70;94.30;;;;;;1897340;76;21268;-64
2023/02/15 02:05:25;;;;;;;5.05;2.42;;;2.70;94.30;;;;;;1897011;75;21213;-63
2023/02/15 02:07:57;;;;;;;3.05;2.50;;;2.60;94.40;;;;;;1897357;76;21155;-64
2023/02/15 02:10:28;;;;;;;3.70;2.77;;;2.60;94.50;;;;;;1897316;76;21248;-64
2023/02/15 02:13:03;;;;;;;5.87;3.75;;;2.60;94.70;;;;;;1897485;76;21595;-64
2023/02/15 02:15:41;;;;;;;5.92;3.50;;;2.60;94.50;;;;;;1897610;76;21260;-64
2023/02/15 02:18:33;;;;;;;9.75;5.70;;;2.60;94.50;;;;;;1896854;76;21282;-65
2023/02/15 02:21:32;;;;;;;7.40;3.75;;;2.70;94.50;;;;;;1897441;76;21114;-64
2023/02/15 02:24:27;;;;;;;7.67;5.55;;;2.70;94.70;;;;;;1896157;76;21178;-64
2023/02/15 02:26:58;;;;;;;11.93;5.92;;;2.70;94.50;;;;;;1897484;76;21365;-64
2023/02/15 02:29:45;;;;;;;10.00;7.67;;;2.70;94.40;;;;;;1872793;76;21154;-65
2023/02/15 02:32:37;;;;;;;10.28;7.22;;;2.70;94.70;;;;;;1897561;76;21121;-65
2023/02/15 02:35:21;;;;;;;18.35;10.00;;;2.80;94.60;;;;;;1897499;76;21304;-64
2023/02/15 02:38:01;;;;;;;13.58;7.03;;;2.80;94.60;;;;;;1896776;76;21241;-64
2023/02/15 02:40:33;;;;;;;28.52;13.83;;;2.80;94.40;;;;;;1897454;76;21174;-64
2023/02/15 02:43:14;;;;;;;43.75;17.45;;;2.80;94.40;;;;;;1897442;76;21093;-64
2023/02/15 02:45:50;;;;;;;23.30;11.60;;;2.80;94.60;;;;;;1896900;75;21183;-64
2023/02/15 02:48:24;;;;;;;10.53;7.65;;;2.80;94.50;;;;;;1896051;76;21374;-65
2023/02/15 02:50:53;;;;;;;18.30;9.33;;;2.80;94.60;;;;;;1897493;76;21234;-65
2023/02/15 02:53:22;;;;;;;16.82;9.65;;;2.80;94.50;;;;;;1897379;76;21094;-64
2023/02/15 02:55:54;;;;;;;14.07;8.90;;;2.70;94.40;;;;;;1897402;76;21203;-65
2023/02/15 02:58:41;;;;;;;23.98;13.40;;;2.70;94.60;;;;;;1897360;76;21505;-65
2023/02/15 03:01:13;;;;;;;10.82;6.62;;;2.70;94.50;;;;;;1897512;76;21191;-65
2023/02/15 03:03:48;;;;;;;40.08;18.40;;;2.70;94.60;;;;;;1897532;76;21170;-65
2023/02/15 03:06:20;;;;;;;28.52;13.93;;;2.80;94.70;;;;;;1902557;75;21169;-65
2023/02/15 03:08:52;;;;;;;30.43;15.10;;;2.70;94.60;;;;;;1906618;74;21094;-64
2023/02/15 03:11:21;;;;;;;19.65;9.78;;;2.70;94.50;;;;;;1905203;75;21190;-63
2023/02/15 03:13:52;;;;;;;9.85;6.92;;;2.70;94.50;;;;;;1906899;75;21231;-64
2023/02/15 03:16:28;;;;;;;19.27;10.32;;;2.80;94.70;;;;;;1906931;75;21198;-64
2023/02/15 03:19:12;;;;;;;18.35;9.08;;;2.70;94.60;;;;;;1906949;75;21189;-64
2023/02/15 03:21:57;;;;;;;14.50;8.53;;;2.70;94.50;;;;;;1905379;75;21516;-64
2023/02/15 03:24:26;;;;;;;14.00;8.15;;;2.80;94.50;;;;;;1905543;75;21173;-64
2023/02/15 03:26:57;;;;;;;13.03;7.22;;;2.80;94.40;;;;;;1907028;75;21661;-64
2023/02/15 03:29:29;;;;;;;16.87;8.58;;;2.80;94.50;;;;;;1906859;75;21153;-63
2023/02/15 03:32:03;;;;;;;13.60;8.88;;;2.80;94.60;;;;;;1906788;75;21157;-64
2023/02/15 03:34:32;;;;;;;12.80;8.08;;;2.70;94.50;;;;;;1907075;75;21690;-64
2023/02/15 03:37:13;;;;;;;17.37;9.70;;;2.70;94.60;;;;;;1906866;75;21174;-64
2023/02/15 03:41:08;;;;;;;15.90;7.62;;;2.70;94.70;;;;;;1906690;75;21288;-64
2023/02/15 03:42:33;;;;;;;10.95;5.67;;;2.70;94.50;;;;;;1902138;75;21294;-64
2023/02/15 03:45:08;;;;;;;12.25;7.50;;;2.70;94.60;;;;;;1906988;75;21278;-64
2023/02/15 03:47:40;;;;;;;11.57;6.87;;;2.70;94.30;;;;;;1905274;75;21147;-64
2023/02/15 03:53:04;;;;;;;8.70;6.17;;;2.70;94.50;;;;;;1906893;75;21238;-64
2023/02/15 03:55:34;;;;;;;12.15;8.10;;;2.70;94.50;;;;;;1906154;75;21653;-64
2023/02/15 04:04:04;;;;;;;13.90;8.40;;;2.70;94.50;;;;;;1907109;75;21298;-65
2023/02/15 04:06:33;;;;;;;12.75;7.90;;;2.70;94.30;;;;;;1902799;74;21665;-64
2023/02/15 04:11:49;;;;;;;16.97;8.43;;;2.70;94.50;;;;;;1900455;75;21230;-64
2023/02/15 04:17:09;;;;;;;11.63;7.35;;;2.80;94.60;;;;;;1957533;72;21189;-64
2023/02/15 04:25:16;;;;;;;19.32;10.48;;;2.70;94.40;;;;;;1961487;73;21165;-65
2023/02/15 04:27:48;;;;;;;21.10;8.30;;;2.70;94.40;;;;;;1960243;73;21339;-65
2023/02/15 04:30:19;;;;;;;12.55;7.95;;;2.70;94.50;;;;;;1961622;73;21217;-65
2023/02/15 04:32:48;;;;;;;15.98;10.00;;;2.70;94.30;;;;;;1961667;73;21713;-65
2023/02/15 04:35:17;;;;;;;17.05;8.88;;;2.80;94.40;;;;;;1961498;73;21173;-65
2023/02/15 04:37:46;;;;;;;39.33;21.37;;;2.80;94.30;;;;;;1961487;73;21212;-65
2023/02/15 04:40:16;;;;;;;66.30;39.08;;;2.90;94.30;;;;;;1961511;73;21124;-65
2023/02/15 04:42:47;;;;;;;30.40;16.12;;;2.90;94.20;;;;;;1961485;73;21213;-65
2023/02/15 04:45:16;;;;;;;36.00;20.85;;;2.90;94.30;;;;;;1961480;73;21107;-65
2023/02/15 04:47:46;;;;;;;22.82;13.60;;;2.90;94.30;;;;;;1961474;73;21036;-65
2023/02/15 04:50:15;;;;;;;16.75;9.28;;;2.90;94.20;;;;;;1961356;73;21282;-65
2023/02/15 04:52:44;;;;;;;19.62;11.45;;;2.90;94.30;;;;;;1961473;73;21251;-65
2023/02/15 04:55:13;;;;;;;20.90;15.03;;;2.80;94.20;;;;;;1961359;73;21060;-65
2023/02/15 04:57:42;;;;;;;17.62;11.10;;;2.80;94.50;;;;;;1961330;73;21118;-65
2023/02/15 05:00:12;;;;;;;16.52;9.93;;;2.80;94.50;;;;;;1961380;73;21201;-64
2023/02/15 05:02:41;;;;;;;12.58;7.45;;;2.80;94.40;;;;;;1961469;72;21260;-65
2023/02/15 05:05:12;;;;;;;18.37;9.88;;;2.70;94.60;;;;;;1961315;73;21106;-66
2023/02/15 05:07:40;;;;;;;15.58;8.40;;;2.70;94.40;;;;;;1961446;73;21193;-66
2023/02/15 05:10:10;;;;;;;15.60;9.08;;;2.70;94.50;;;;;;1961447;73;21292;-66
2023/02/15 05:12:39;;;;;;;10.53;6.62;;;2.70;94.40;;;;;;1961484;72;21199;-65
2023/02/15 05:15:08;;;;;;;28.75;19.80;;;2.70;94.60;;;;;;1961353;73;21189;-66
2023/02/15 05:17:37;;;;;;;12.40;7.72;;;2.70;94.50;;;;;;1951691;73;21159;-65
2023/02/15 05:20:07;;;;;;;13.05;7.00;;;2.60;94.70;;;;;;1949425;73;21214;-66
2023/02/15 05:22:36;;;;;;;15.70;9.10;;;2.60;94.70;;;;;;1949428;73;21326;-66
2023/02/15 05:30:39;;;;;;;8.28;6.30;;;2.50;94.70;;;;;;1949309;73;21127;-65
2023/02/15 05:33:09;;;;;;;7.55;5.53;;;2.50;95.00;;;;;;1949495;73;21221;-65
2023/02/15 05:35:37;;;;;;;10.53;7.22;;;2.50;95.00;;;;;;1949333;73;21178;-65
2023/02/15 05:38:06;;;;;;;10.32;5.67;;;2.50;94.70;;;;;;1949253;73;21213;-65
2023/02/15 05:40:36;;;;;;;9.48;6.95;;;2.50;94.90;;;;;;1949293;73;21557;-66
2023/02/15 05:43:04;;;;;;;12.30;7.25;;;2.50;95.00;;;;;;1949266;73;21220;-66
2023/02/15 05:45:33;;;;;;;12.25;7.50;;;2.40;94.70;;;;;;1949396;73;21612;-65
2023/02/15 05:48:02;;;;;;;9.25;4.42;;;2.40;94.80;;;;;;1949546;73;21169;-65
2023/02/15 05:50:31;;;;;;;4.53;3.75;;;2.40;95.10;;;;;;1949288;73;21663;-65
2023/02/15 05:53:01;;;;;;;5.67;3.85;;;2.30;95.20;;;;;;1949384;73;21107;-66
2023/02/15 05:55:30;;;;;;;8.05;4.58;;;2.30;95.40;;;;;;1949411;73;21185;-65
2023/02/15 05:57:59;;;;;;;6.17;4.03;;;2.30;95.40;;;;;;1949275;73;21253;-65
2023/02/15 06:00:28;;;;;;;8.30;5.20;;;2.20;95.40;;;;;;1949281;73;21252;-65
2023/02/15 06:02:57;;;;;;;4.83;3.42;;;2.20;95.50;;;;;;1949224;73;21121;-65
2023/02/15 06:05:27;;;;;;;6.03;4.17;;;2.20;95.70;;;;;;1949226;73;21194;-65
2023/02/15 06:07:55;;;;;;;10.00;6.20;;;2.10;95.70;;;;;;1949379;73;21208;-65
2023/02/15 06:10:24;;;;;;;4.97;4.08;;;2.10;95.60;;;;;;1949247;73;21131;-64
2023/02/15 06:12:55;;;;;;;12.23;7.08;;;2.10;95.80;;;;;;1949282;73;21295;-66
2023/02/15 06:15:24;;;;;;;5.95;4.17;;;2.10;95.80;;;;;;1949369;73;21130;-66
2023/02/15 06:17:53;;;;;;;15.50;7.95;;;2.10;95.70;;;;;;1957022;72;21770;-65
2023/02/15 06:20:22;;;;;;;4.12;2.95;;;2.10;95.60;;;;;;1961223;73;21186;-65
2023/02/15 06:22:51;;;;;;;8.25;5.37;;;2.10;95.90;;;;;;1961204;73;21151;-65
2023/02/15 06:25:20;;;;;;;11.65;7.20;;;2.20;95.80;;;;;;1961226;73;21365;-66
2023/02/15 06:27:50;;;;;;;13.62;8.78;;;2.10;95.50;;;;;;1958153;73;21335;-65
2023/02/15 06:30:19;;;;;;;11.10;8.63;;;2.20;95.40;;;;;;1961075;73;21248;-65
2023/02/15 06:32:48;;;;;;;4.67;3.60;;;2.20;95.60;;;;;;1961199;73;21118;-59
2023/02/15 06:35:17;;;;;;;7.87;6.00;;;2.20;95.80;;;;;;1961278;73;21242;-59
2023/02/15 06:37:48;;;;;;;6.17;5.40;;;2.10;95.80;;;;;;1961170;73;21274;-59
2023/02/15 06:40:17;;;;;;;7.87;4.60;;;2.20;95.80;;;;;;1961194;73;21197;-59
2023/02/15 06:42:46;;;;;;;8.45;5.65;;;2.10;95.90;;;;;;1961315;73;21244;-59
2023/02/15 06:45:15;;;;;;;6.28;3.20;;;2.10;95.90;;;;;;1961286;73;21712;-59
2023/02/15 06:47:44;;;;;;;9.13;6.97;;;2.10;95.80;;;;;;1961218;73;21268;-59
2023/02/15 06:50:13;;;;;;;4.22;3.33;;;2.10;95.80;;;;;;1961283;73;21132;-59
2023/02/15 06:52:42;;;;;;;6.80;4.05;;;2.10;95.80;;;;;;1961335;73;21167;-59
2023/02/15 06:55:11;;;;;;;8.08;4.72;;;2.10;95.90;;;;;;1961428;73;21556;-59
2023/02/15 06:57:40;;;;;;;8.55;4.67;;;2.00;96.00;;;;;;1961363;73;21264;-59
2023/02/15 07:00:10;;;;;;;7.35;4.22;;;2.10;96.10;;;;;;1961447;73;21166;-59
2023/02/15 07:02:39;;;;;;;5.83;4.40;;;2.10;96.00;;;;;;1961500;73;21283;-59
2023/02/15 07:05:08;;;;;;;10.05;5.10;;;2.10;96.00;;;;;;1961484;73;21181;-59
2023/02/15 07:07:37;;;;;;;7.15;6.35;;;2.10;95.90;;;;;;1961375;73;21123;-59
2023/02/15 07:10:07;;;;;;;8.15;4.55;;;2.10;95.90;;;;;;1961341;73;21254;-58
2023/02/15 07:12:42;;;;;;;9.93;5.50;;;2.10;95.90;;;;;;1961527;73;21162;-59
2023/02/15 07:15:13;;;;;;;9.03;5.90;;;2.10;95.80;;;;;;1961427;73;21016;-58
2023/02/15 07:17:43;;;;;;;9.30;5.65;;;2.10;95.80;;;;;;1961280;73;21299;-59
2023/02/15 07:20:14;;;;;;;13.03;6.20;;;2.20;95.80;;;;;;1961383;73;21534;-59
2023/02/15 07:22:43;;;;;;;3.12;2.65;;;2.20;95.70;;;;;;1961292;73;21228;-59
2023/02/15 07:25:13;;;;;;;12.90;7.33;;;2.20;95.70;;;;;;1961256;73;21636;-59
2023/02/15 07:27:43;;;;;;;9.00;5.87;;;2.30;95.60;;;;;;1961231;73;21182;-59
2023/02/15 07:30:15;;;;;;;6.40;4.58;;;2.30;95.60;;;;;;1961272;73;21090;-59
2023/02/15 07:35:30;;;;;;;13.98;8.38;;;2.30;95.60;;;;;;1961296;73;21201;-59
2023/02/15 07:37:59;;;;;;;14.43;8.50;;;2.40;95.40;;;;;;1961186;73;21557;-59
2023/02/15 07:40:28;;;;;;;10.50;8.30;;;2.40;95.40;;;;;;1961308;73;21329;-59
2023/02/15 07:42:58;;;;;;;9.33;6.37;;;2.50;95.30;;;;;;1961259;73;21229;-59
2023/02/15 07:45:27;;;;;;;7.97;5.67;;;2.60;95.40;;;;;;1961434;73;21105;-59
2023/02/15 07:47:56;;;;;;;7.35;6.50;;;2.60;95.20;;;;;;1961399;73;21094;-59
2023/02/15 07:50:25;;;;;;;7.17;4.72;;;2.70;95.10;;;;;;1961256;72;21182;-59
2023/02/15 07:52:54;;;;;;;10.78;7.15;;;2.80;95.00;;;;;;1961281;73;21048;-59
2023/02/15 07:55:24;;;;;;;4.97;3.98;;;2.80;94.60;;;;;;1961332;73;21134;-59
2023/02/15 07:57:53;;;;;;;7.60;5.15;;;2.80;94.50;;;;;;1961312;73;21217;-59
2023/02/15 08:00:24;;;;;;;7.67;4.90;;;2.80;94.60;;;;;;1961339;73;21130;-59
2023/02/15 08:03:13;;;;;;;11.83;6.83;;;2.80;94.60;;;;;;1961300;72;21126;-59
2023/02/15 08:05:44;;;;;;;12.35;7.15;;;2.80;94.60;;;;;;1961511;73;21252;-59
2023/02/15 08:08:35;;;;;;;12.68;7.45;;;2.80;94.60;;;;;;1961372;73;21088;-59
2023/02/15 08:13:24;;;;;;;13.48;7.30;;;2.80;94.60;;;;;;1930243;73;21028;-59
2023/02/15 08:15:53;;;;;;;12.20;7.22;;;2.80;94.30;;;;;;1961360;73;21565;-59
2023/02/15 08:18:22;;;;;;;10.20;6.58;;;2.90;94.60;;;;;;1962281;73;21220;-59
2023/02/15 08:20:51;;;;;;;9.23;5.87;;;2.90;94.80;;;;;;1965315;73;21224;-59
2023/02/15 08:23:20;;;;;;;5.72;4.08;;;3.00;94.30;;;;;;1927149;74;21091;-59
2023/02/15 08:25:50;;;;;;;8.95;4.83;;;3.00;93.80;;;;;;1927019;74;21149;-59
2023/02/15 08:28:18;;;;;;;6.92;5.50;;;2.90;93.70;;;;;;1927103;74;21181;-59
2023/02/15 08:30:47;;;;;;;10.32;6.10;;;2.90;93.60;;;;;;1927022;74;21298;-59
2023/02/15 08:33:17;;;;;;;12.50;8.35;;;2.80;93.80;;;;;;1926972;74;21568;-59
2023/02/15 08:35:47;;;;;;;14.93;9.55;;;2.80;94.00;;;;;;1927046;74;21188;-59
2023/02/15 08:38:16;;;;;;;7.15;5.62;;;2.80;94.00;;;;;;1927086;74;21069;-59
2023/02/15 08:40:45;;;;;;;10.70;5.20;;;2.80;93.80;;;;;;1927003;74;21582;-59
2023/02/15 08:43:13;;;;;;;10.80;6.20;;;2.80;94.00;;;;;;1927106;74;21129;-59
2023/02/15 08:45:43;;;;;;;12.43;8.20;;;2.80;94.10;;;;;;1927050;74;21435;-59
2023/02/15 08:48:12;;;;;;;8.55;5.83;;;2.80;94.20;;;;;;1926990;74;21154;-59
2023/02/15 08:50:40;;;;;;;12.37;6.30;;;2.90;94.00;;;;;;1927087;74;21066;-59
2023/02/15 08:53:11;;;;;;;10.90;8.03;;;2.90;93.70;;;;;;1926300;74;21175;-59
2023/02/15 08:55:40;;;;;;;9.30;6.72;;;2.90;94.10;;;;;;1927090;74;21023;-59
2023/02/15 08:58:09;;;;;;;7.95;5.50;;;3.00;93.90;;;;;;1927000;74;21033;-59
2023/02/15 09:00:38;;;;;;;12.20;7.87;;;3.00;93.70;;;;;;1926972;74;21117;-58
2023/02/15 09:03:07;;;;;;;9.38;5.97;;;3.00;93.80;;;;;;1926893;74;21213;-59
2023/02/15 09:05:36;;;;;;;10.23;7.35;;;3.10;94.00;;;;;;1926933;74;21050;-59
2023/02/15 09:08:05;;;;;;;12.15;6.80;;;3.10;93.70;;;;;;1926879;74;21081;-59
2023/02/15 09:10:34;;;;;;;10.00;7.58;;;3.20;93.50;;;;;;1926935;74;21201;-59
2023/02/15 09:13:03;;;;;;;9.70;7.95;;;3.20;93.60;;;;;;1926921;74;21144;-59
2023/02/15 09:15:32;;;;;;;10.95;7.10;;;3.20;93.80;;;;;;1926952;74;21071;-59
2023/02/15 09:18:05;;;;;;;12.82;8.43;;;3.20;93.90;;;;;;1927036;74;21134;-59
2023/02/15 09:20:31;;;;;;;11.10;8.85;;;3.20;93.90;;;;;;1926603;74;21131;-59
2023/02/15 09:23:00;;;;;;;8.58;6.22;;;3.30;94.10;;;;;;1927081;74;21097;-59
2023/02/15 09:25:29;;;;;;;9.78;7.95;;;3.30;93.60;;;;;;1926915;74;21140;-59
2023/02/15 09:27:58;;;;;;;5.92;4.80;;;3.40;93.80;;;;;;1926988;74;21012;-59
